sensor_id;sensor_type;location;lat;lon;timestamp;temperature;humidity
19652;DHT22;9974;52.146;14.668;2023-07-13T00:00:12;20.60;99.90
19652;DHT22;9974;52.146;14.668;2023-07-13T00:02:41;20.80;99.90
19652;DHT22;9974;52.146;14.668;2023-07-13T00:05:08;20.40;99.90
19652;DHT22;9974;52.146;14.668;2023-07-13T00:07:34;20.30;99.90
19652;DHT22;9974;52.146;14.668;2023-07-13T00:10:01;20.20;99.90
19652;DHT22;9974;52.146;14.668;2023-07-13T00:15:02;20.30;99.90
19652;DHT22;9974;52.146;14.668;2023-07-13T00:17:32;21.00;99.90
19652;DHT22;9974;52.146;14.668;2023-07-13T00:19:58;20.60;99.90
19652;DHT22;9974;52.146;14.668;2023-07-13T00:22:24;20.60;99.90
19652;DHT22;9974;52.146;14.668;2023-07-13T00:24:53;20.50;99.90
19652;DHT22;9974;52.146;14.668;2023-07-13T00:27:21;20.80;99.90
19652;DHT22;9974;52.146;14.668;2023-07-13T00:29:47;21.00;99.90
19652;DHT22;9974;52.146;14.668;2023-07-13T00:32:13;20.90;99.90
19652;DHT22;9974;52.146;14.668;2023-07-13T00:34:39;20.80;99.90
19652;DHT22;9974;52.146;14.668;2023-07-13T00:37:06;20.20;99.90
19652;DHT22;9974;52.146;14.668;2023-07-13T00:39:33;20.10;99.90
19652;DHT22;9974;52.146;14.668;2023-07-13T00:41:59;20.80;99.90
19652;DHT22;9974;52.146;14.668;2023-07-13T00:44:25;20.30;99.90
19652;DHT22;9974;52.146;14.668;2023-07-13T00:49:20;20.10;99.90
19652;DHT22;9974;52.146;14.668;2023-07-13T00:51:54;20.70;99.90
19652;DHT22;9974;52.146;14.668;2023-07-13T00:54:27;20.50;99.90
19652;DHT22;9974;52.146;14.668;2023-07-13T00:56:57;20.30;99.90
19652;DHT22;9974;52.146;14.668;2023-07-13T00:59:26;20.30;99.90
19652;DHT22;9974;52.146;14.668;2023-07-13T01:04:18;20.00;99.90
19652;DHT22;9974;52.146;14.668;2023-07-13T01:06:45;20.40;99.90
19652;DHT22;9974;52.146;14.668;2023-07-13T01:09:12;19.70;99.90
19652;DHT22;9974;52.146;14.668;2023-07-13T01:11:39;20.00;99.90
19652;DHT22;9974;52.146;14.668;2023-07-13T01:14:06;19.30;99.90
19652;DHT22;9974;52.146;14.668;2023-07-13T01:16:34;19.30;99.90
19652;DHT22;9974;52.146;14.668;2023-07-13T01:19:01;19.30;99.90
19652;DHT22;9974;52.146;14.668;2023-07-13T01:21:32;19.20;99.90
19652;DHT22;9974;52.146;14.668;2023-07-13T01:23:58;18.80;99.90
19652;DHT22;9974;52.146;14.668;2023-07-13T01:26:24;19.00;99.90
19652;DHT22;9974;52.146;14.668;2023-07-13T01:28:50;18.90;99.90
19652;DHT22;9974;52.146;14.668;2023-07-13T01:31:16;18.90;99.90
19652;DHT22;9974;52.146;14.668;2023-07-13T01:36:52;19.10;99.90
19652;DHT22;9974;52.146;14.668;2023-07-13T01:39:21;19.20;99.90
19652;DHT22;9974;52.146;14.668;2023-07-13T01:41:48;19.70;99.90
19652;DHT22;9974;52.146;14.668;2023-07-13T01:44:13;19.30;99.90
19652;DHT22;9974;52.146;14.668;2023-07-13T01:46:39;19.30;99.90
19652;DHT22;9974;52.146;14.668;2023-07-13T01:49:05;19.00;99.90
19652;DHT22;9974;52.146;14.668;2023-07-13T01:51:31;18.90;99.90
19652;DHT22;9974;52.146;14.668;2023-07-13T01:53:56;19.30;99.90
19652;DHT22;9974;52.146;14.668;2023-07-13T01:58:48;19.20;99.90
19652;DHT22;9974;52.146;14.668;2023-07-13T02:01:14;18.80;99.90
19652;DHT22;9974;52.146;14.668;2023-07-13T02:03:40;18.70;99.90
19652;DHT22;9974;52.146;14.668;2023-07-13T02:06:05;18.70;99.90
19652;DHT22;9974;52.146;14.668;2023-07-13T02:08:32;18.70;99.90
19652;DHT22;9974;52.146;14.668;2023-07-13T02:10:59;18.80;99.90
19652;DHT22;9974;52.146;14.668;2023-07-13T02:13:25;18.80;99.90
19652;DHT22;9974;52.146;14.668;2023-07-13T02:15:51;18.50;99.90
19652;DHT22;9974;52.146;14.668;2023-07-13T02:18:17;18.90;99.90
19652;DHT22;9974;52.146;14.668;2023-07-13T02:20:44;18.30;99.90
19652;DHT22;9974;52.146;14.668;2023-07-13T02:23:10;18.90;99.90
19652;DHT22;9974;52.146;14.668;2023-07-13T02:25:36;18.80;99.90
19652;DHT22;9974;52.146;14.668;2023-07-13T02:28:01;18.20;99.90
19652;DHT22;9974;52.146;14.668;2023-07-13T02:30:28;18.60;99.90
19652;DHT22;9974;52.146;14.668;2023-07-13T02:32:55;18.10;99.90
19652;DHT22;9974;52.146;14.668;2023-07-13T02:35:22;17.80;99.90
19652;DHT22;9974;52.146;14.668;2023-07-13T02:37:47;17.80;99.90
19652;DHT22;9974;52.146;14.668;2023-07-13T02:40:13;18.40;99.90
19652;DHT22;9974;52.146;14.668;2023-07-13T02:42:39;18.10;99.90
19652;DHT22;9974;52.146;14.668;2023-07-13T02:45:07;18.00;99.90
19652;DHT22;9974;52.146;14.668;2023-07-13T02:47:34;18.30;99.90
19652;DHT22;9974;52.146;14.668;2023-07-13T02:52:27;18.80;99.90
19652;DHT22;9974;52.146;14.668;2023-07-13T02:54:52;18.80;99.90
19652;DHT22;9974;52.146;14.668;2023-07-13T02:57:18;18.70;99.90
19652;DHT22;9974;52.146;14.668;2023-07-13T02:59:44;18.20;99.90
19652;DHT22;9974;52.146;14.668;2023-07-13T03:02:10;18.20;99.90
19652;DHT22;9974;52.146;14.668;2023-07-13T03:04:36;18.10;99.90
19652;DHT22;9974;52.146;14.668;2023-07-13T03:07:03;18.50;99.90
19652;DHT22;9974;52.146;14.668;2023-07-13T03:09:31;18.60;99.90
19652;DHT22;9974;52.146;14.668;2023-07-13T03:11:58;18.50;99.90
19652;DHT22;9974;52.146;14.668;2023-07-13T03:14:24;17.90;99.90
19652;DHT22;9974;52.146;14.668;2023-07-13T03:16:50;18.50;99.90
19652;DHT22;9974;52.146;14.668;2023-07-13T03:19:15;18.60;99.90
19652;DHT22;9974;52.146;14.668;2023-07-13T03:21:41;17.80;99.90
19652;DHT22;9974;52.146;14.668;2023-07-13T03:24:07;18.10;99.90
19652;DHT22;9974;52.146;14.668;2023-07-13T03:26:32;17.90;99.90
19652;DHT22;9974;52.146;14.668;2023-07-13T03:28:58;18.50;99.90
19652;DHT22;9974;52.146;14.668;2023-07-13T03:31:26;17.50;99.90
19652;DHT22;9974;52.146;14.668;2023-07-13T03:33:55;17.80;99.90
19652;DHT22;9974;52.146;14.668;2023-07-13T03:36:24;18.20;99.90
19652;DHT22;9974;52.146;14.668;2023-07-13T03:38:58;17.80;99.90
19652;DHT22;9974;52.146;14.668;2023-07-13T03:41:25;18.50;99.90
19652;DHT22;9974;52.146;14.668;2023-07-13T03:43:51;18.40;99.90
19652;DHT22;9974;52.146;14.668;2023-07-13T03:46:18;18.70;99.90
19652;DHT22;9974;52.146;14.668;2023-07-13T03:48:45;18.20;99.90
19652;DHT22;9974;52.146;14.668;2023-07-13T03:51:13;18.10;99.90
19652;DHT22;9974;52.146;14.668;2023-07-13T03:53:42;18.80;99.90
19652;DHT22;9974;52.146;14.668;2023-07-13T03:56:08;18.20;99.90
19652;DHT22;9974;52.146;14.668;2023-07-13T03:58:36;18.50;99.90
19652;DHT22;9974;52.146;14.668;2023-07-13T04:01:05;18.30;99.90
19652;DHT22;9974;52.146;14.668;2023-07-13T04:03:32;18.20;99.90
19652;DHT22;9974;52.146;14.668;2023-07-13T04:05:59;18.80;99.90
19652;DHT22;9974;52.146;14.668;2023-07-13T04:08:36;18.70;99.90
19652;DHT22;9974;52.146;14.668;2023-07-13T04:11:03;18.80;99.90
19652;DHT22;9974;52.146;14.668;2023-07-13T04:13:30;18.40;99.90
19652;DHT22;9974;52.146;14.668;2023-07-13T04:15:55;18.90;99.90
19652;DHT22;9974;52.146;14.668;2023-07-13T04:18:21;18.90;99.90
19652;DHT22;9974;52.146;14.668;2023-07-13T04:20:48;18.60;99.90
19652;DHT22;9974;52.146;14.668;2023-07-13T04:23:15;18.30;99.90
19652;DHT22;9974;52.146;14.668;2023-07-13T04:25:48;18.90;99.90
19652;DHT22;9974;52.146;14.668;2023-07-13T04:30:48;18.50;99.90
19652;DHT22;9974;52.146;14.668;2023-07-13T04:33:15;18.70;99.90
19652;DHT22;9974;52.146;14.668;2023-07-13T04:35:42;19.10;99.90
19652;DHT22;9974;52.146;14.668;2023-07-13T04:38:09;19.20;99.90
19652;DHT22;9974;52.146;14.668;2023-07-13T04:40:36;19.20;99.90
19652;DHT22;9974;52.146;14.668;2023-07-13T04:43:02;18.70;99.90
19652;DHT22;9974;52.146;14.668;2023-07-13T04:47:54;18.70;99.90
19652;DHT22;9974;52.146;14.668;2023-07-13T04:50:19;18.30;99.90
19652;DHT22;9974;52.146;14.668;2023-07-13T04:55:15;18.40;99.90
19652;DHT22;9974;52.146;14.668;2023-07-13T04:57:41;19.00;99.90
19652;DHT22;9974;52.146;14.668;2023-07-13T05:00:07;18.90;99.90
19652;DHT22;9974;52.146;14.668;2023-07-13T05:02:34;19.30;99.90
19652;DHT22;9974;52.146;14.668;2023-07-13T05:05:00;18.70;99.90
19652;DHT22;9974;52.146;14.668;2023-07-13T05:07:26;19.50;99.90
19652;DHT22;9974;52.146;14.668;2023-07-13T05:09:52;19.40;99.90
19652;DHT22;9974;52.146;14.668;2023-07-13T05:12:18;19.80;99.90
19652;DHT22;9974;52.146;14.668;2023-07-13T05:14:44;19.20;99.90
19652;DHT22;9974;52.146;14.668;2023-07-13T05:17:10;20.00;99.90
19652;DHT22;9974;52.146;14.668;2023-07-13T05:19:36;19.70;99.90
19652;DHT22;9974;52.146;14.668;2023-07-13T05:22:02;19.80;99.90
19652;DHT22;9974;52.146;14.668;2023-07-13T05:24:29;19.90;99.90
19652;DHT22;9974;52.146;14.668;2023-07-13T05:26:55;19.80;99.90
19652;DHT22;9974;52.146;14.668;2023-07-13T05:29:22;19.30;99.90
19652;DHT22;9974;52.146;14.668;2023-07-13T05:31:48;19.80;99.90
19652;DHT22;9974;52.146;14.668;2023-07-13T05:34:13;19.70;99.90
19652;DHT22;9974;52.146;14.668;2023-07-13T05:36:40;20.00;99.90
19652;DHT22;9974;52.146;14.668;2023-07-13T05:39:06;19.60;99.90
19652;DHT22;9974;52.146;14.668;2023-07-13T05:41:31;19.50;99.90
19652;DHT22;9974;52.146;14.668;2023-07-13T05:43:57;20.20;99.90
19652;DHT22;9974;52.146;14.668;2023-07-13T05:46:23;19.80;99.90
19652;DHT22;9974;52.146;14.668;2023-07-13T05:48:48;20.10;99.90
19652;DHT22;9974;52.146;14.668;2023-07-13T05:51:14;19.80;99.90
19652;DHT22;9974;52.146;14.668;2023-07-13T05:53:40;20.00;99.90
19652;DHT22;9974;52.146;14.668;2023-07-13T05:56:05;19.90;99.90
19652;DHT22;9974;52.146;14.668;2023-07-13T05:58:31;20.20;99.90
19652;DHT22;9974;52.146;14.668;2023-07-13T06:01:05;20.10;99.90
19652;DHT22;9974;52.146;14.668;2023-07-13T06:03:32;20.00;99.90
19652;DHT22;9974;52.146;14.668;2023-07-13T06:05:58;20.00;99.90
19652;DHT22;9974;52.146;14.668;2023-07-13T06:08:26;20.00;99.90
19652;DHT22;9974;52.146;14.668;2023-07-13T06:13:18;19.90;99.90
19652;DHT22;9974;52.146;14.668;2023-07-13T06:15:50;20.10;99.90
19652;DHT22;9974;52.146;14.668;2023-07-13T06:18:16;20.60;99.90
19652;DHT22;9974;52.146;14.668;2023-07-13T06:20:42;20.20;99.90
19652;DHT22;9974;52.146;14.668;2023-07-13T06:23:08;21.00;99.90
19652;DHT22;9974;52.146;14.668;2023-07-13T06:25:33;22.30;99.90
19652;DHT22;9974;52.146;14.668;2023-07-13T06:27:59;20.50;99.90
19652;DHT22;9974;52.146;14.668;2023-07-13T06:30:25;20.50;99.90
19652;DHT22;9974;52.146;14.668;2023-07-13T06:32:51;21.00;99.90
19652;DHT22;9974;52.146;14.668;2023-07-13T06:35:17;20.90;99.90
19652;DHT22;9974;52.146;14.668;2023-07-13T06:37:43;20.20;99.90
19652;DHT22;9974;52.146;14.668;2023-07-13T06:40:09;20.40;99.90
19652;DHT22;9974;52.146;14.668;2023-07-13T06:45:01;21.10;99.90
19652;DHT22;9974;52.146;14.668;2023-07-13T06:47:27;20.80;99.90
19652;DHT22;9974;52.146;14.668;2023-07-13T06:49:53;20.90;99.90
19652;DHT22;9974;52.146;14.668;2023-07-13T06:52:18;21.00;99.90
19652;DHT22;9974;52.146;14.668;2023-07-13T06:54:44;21.70;99.90
19652;DHT22;9974;52.146;14.668;2023-07-13T06:57:10;21.10;99.90
19652;DHT22;9974;52.146;14.668;2023-07-13T06:59:35;21.00;99.90
19652;DHT22;9974;52.146;14.668;2023-07-13T07:02:01;21.50;99.90
19652;DHT22;9974;52.146;14.668;2023-07-13T07:04:27;21.40;99.90
19652;DHT22;9974;52.146;14.668;2023-07-13T07:06:52;22.10;99.90
19652;DHT22;9974;52.146;14.668;2023-07-13T07:09:19;21.80;99.90
19652;DHT22;9974;52.146;14.668;2023-07-13T07:14:11;22.00;99.90
19652;DHT22;9974;52.146;14.668;2023-07-13T07:16:37;22.40;99.90
19652;DHT22;9974;52.146;14.668;2023-07-13T07:19:02;22.60;99.90
19652;DHT22;9974;52.146;14.668;2023-07-13T07:21:28;22.70;99.90
19652;DHT22;9974;52.146;14.668;2023-07-13T07:23:54;22.60;99.90
19652;DHT22;9974;52.146;14.668;2023-07-13T07:26:19;22.40;99.90
19652;DHT22;9974;52.146;14.668;2023-07-13T07:28:45;22.50;99.90
19652;DHT22;9974;52.146;14.668;2023-07-13T07:31:11;22.90;99.90
19652;DHT22;9974;52.146;14.668;2023-07-13T07:33:37;23.10;99.90
19652;DHT22;9974;52.146;14.668;2023-07-13T07:36:03;23.40;99.90
19652;DHT22;9974;52.146;14.668;2023-07-13T07:38:29;23.60;99.90
19652;DHT22;9974;52.146;14.668;2023-07-13T07:40:54;23.50;99.90
19652;DHT22;9974;52.146;14.668;2023-07-13T07:43:20;23.60;99.90
19652;DHT22;9974;52.146;14.668;2023-07-13T07:45:46;24.00;99.90
19652;DHT22;9974;52.146;14.668;2023-07-13T07:48:12;24.00;99.90
19652;DHT22;9974;52.146;14.668;2023-07-13T07:50:37;24.20;99.90
19652;DHT22;9974;52.146;14.668;2023-07-13T07:53:04;24.20;99.90
19652;DHT22;9974;52.146;14.668;2023-07-13T07:55:33;24.50;99.90
19652;DHT22;9974;52.146;14.668;2023-07-13T07:58:00;24.50;99.90
19652;DHT22;9974;52.146;14.668;2023-07-13T08:00:26;24.50;99.90
19652;DHT22;9974;52.146;14.668;2023-07-13T08:02:54;24.50;99.90
19652;DHT22;9974;52.146;14.668;2023-07-13T08:05:20;24.60;99.90
19652;DHT22;9974;52.146;14.668;2023-07-13T08:07:46;24.90;99.90
19652;DHT22;9974;52.146;14.668;2023-07-13T08:10:11;24.80;99.90
19652;DHT22;9974;52.146;14.668;2023-07-13T08:12:38;25.00;99.90
19652;DHT22;9974;52.146;14.668;2023-07-13T08:15:06;25.10;99.90
19652;DHT22;9974;52.146;14.668;2023-07-13T08:17:34;25.00;99.90
19652;DHT22;9974;52.146;14.668;2023-07-13T08:20:00;25.30;99.90
19652;DHT22;9974;52.146;14.668;2023-07-13T08:22:27;25.30;99.90
19652;DHT22;9974;52.146;14.668;2023-07-13T08:24:53;25.40;99.90
19652;DHT22;9974;52.146;14.668;2023-07-13T08:27:23;25.70;99.90
19652;DHT22;9974;52.146;14.668;2023-07-13T08:29:49;25.60;99.90
19652;DHT22;9974;52.146;14.668;2023-07-13T08:32:15;26.00;99.90
19652;DHT22;9974;52.146;14.668;2023-07-13T08:34:41;26.10;99.90
19652;DHT22;9974;52.146;14.668;2023-07-13T08:37:07;25.70;99.90
19652;DHT22;9974;52.146;14.668;2023-07-13T08:42:04;25.10;99.90
19652;DHT22;9974;52.146;14.668;2023-07-13T08:47:59;25.60;99.90
19652;DHT22;9974;52.146;14.668;2023-07-13T08:50:31;25.80;99.90
19652;DHT22;9974;52.146;14.668;2023-07-13T08:53:00;26.00;99.90
19652;DHT22;9974;52.146;14.668;2023-07-13T08:55:30;26.20;99.90
19652;DHT22;9974;52.146;14.668;2023-07-13T08:58:12;26.20;99.90
19652;DHT22;9974;52.146;14.668;2023-07-13T09:00:44;26.50;99.90
19652;DHT22;9974;52.146;14.668;2023-07-13T09:03:24;26.40;99.90
19652;DHT22;9974;52.146;14.668;2023-07-13T09:05:57;26.30;99.40
19652;DHT22;9974;52.146;14.668;2023-07-13T09:11:31;26.10;99.90
19652;DHT22;9974;52.146;14.668;2023-07-13T09:17:26;26.40;99.60
19652;DHT22;9974;52.146;14.668;2023-07-13T09:20:25;26.30;99.90
19652;DHT22;9974;52.146;14.668;2023-07-13T09:22:55;26.00;97.60
19652;DHT22;9974;52.146;14.668;2023-07-13T09:25:35;26.30;99.90
19652;DHT22;9974;52.146;14.668;2023-07-13T09:28:44;26.30;99.90
19652;DHT22;9974;52.146;14.668;2023-07-13T09:31:16;26.30;99.90
19652;DHT22;9974;52.146;14.668;2023-07-13T09:33:51;25.90;99.90
19652;DHT22;9974;52.146;14.668;2023-07-13T09:36:33;26.20;99.90
19652;DHT22;9974;52.146;14.668;2023-07-13T09:44:38;26.10;97.70
19652;DHT22;9974;52.146;14.668;2023-07-13T09:47:20;26.20;99.90
19652;DHT22;9974;52.146;14.668;2023-07-13T09:50:15;26.10;99.90
19652;DHT22;9974;52.146;14.668;2023-07-13T09:52:49;25.90;99.90
19652;DHT22;9974;52.146;14.668;2023-07-13T10:03:17;25.80;95.40
19652;DHT22;9974;52.146;14.668;2023-07-13T10:05:47;25.60;96.50
19652;DHT22;9974;52.146;14.668;2023-07-13T10:08:21;25.50;99.90
19652;DHT22;9974;52.146;14.668;2023-07-13T10:10:58;25.30;96.30
19652;DHT22;9974;52.146;14.668;2023-07-13T10:13:46;25.20;96.80
19652;DHT22;9974;52.146;14.668;2023-07-13T10:18:46;26.00;94.80
19652;DHT22;9974;52.146;14.668;2023-07-13T10:21:44;25.90;99.30
19652;DHT22;9974;52.146;14.668;2023-07-13T10:24:20;25.50;94.40
19652;DHT22;9974;52.146;14.668;2023-07-13T10:27:03;25.50;99.90
19652;DHT22;9974;52.146;14.668;2023-07-13T10:29:39;25.40;94.90
19652;DHT22;9974;52.146;14.668;2023-07-13T10:32:19;25.50;95.40
19652;DHT22;9974;52.146;14.668;2023-07-13T10:34:48;25.90;94.70
19652;DHT22;9974;52.146;14.668;2023-07-13T10:37:30;26.40;98.90
19652;DHT22;9974;52.146;14.668;2023-07-13T10:40:03;26.80;93.40
19652;DHT22;9974;52.146;14.668;2023-07-13T10:42:35;27.00;97.80
19652;DHT22;9974;52.146;14.668;2023-07-13T10:45:13;27.20;95.60
19652;DHT22;9974;52.146;14.668;2023-07-13T10:47:40;27.50;96.10
19652;DHT22;9974;52.146;14.668;2023-07-13T10:50:08;26.80;90.60
19652;DHT22;9974;52.146;14.668;2023-07-13T10:52:47;26.50;95.50
19652;DHT22;9974;52.146;14.668;2023-07-13T10:55:37;26.40;95.50
19652;DHT22;9974;52.146;14.668;2023-07-13T10:58:41;26.10;95.80
19652;DHT22;9974;52.146;14.668;2023-07-13T11:03:46;25.70;96.20
19652;DHT22;9974;52.146;14.668;2023-07-13T11:06:41;25.60;96.80
19652;DHT22;9974;52.146;14.668;2023-07-13T11:17:47;25.30;96.40
19652;DHT22;9974;52.146;14.668;2023-07-13T11:25:35;25.30;96.90
19652;DHT22;9974;52.146;14.668;2023-07-13T11:30:47;24.90;97.50
19652;DHT22;9974;52.146;14.668;2023-07-13T11:36:16;25.30;96.60
19652;DHT22;9974;52.146;14.668;2023-07-13T11:38:59;25.40;97.80
19652;DHT22;9974;52.146;14.668;2023-07-13T11:41:37;25.30;97.40
19652;DHT22;9974;52.146;14.668;2023-07-13T11:44:14;25.30;96.20
19652;DHT22;9974;52.146;14.668;2023-07-13T11:46:48;25.30;91.50
19652;DHT22;9974;52.146;14.668;2023-07-13T11:49:20;25.00;97.30
19652;DHT22;9974;52.146;14.668;2023-07-13T11:51:47;24.70;97.80
19652;DHT22;9974;52.146;14.668;2023-07-13T11:54:30;25.30;97.50
19652;DHT22;9974;52.146;14.668;2023-07-13T11:57:03;25.10;97.10
19652;DHT22;9974;52.146;14.668;2023-07-13T11:59:39;25.30;97.60
19652;DHT22;9974;52.146;14.668;2023-07-13T12:02:24;27.00;93.20
19652;DHT22;9974;52.146;14.668;2023-07-13T12:07:19;25.70;97.80
19652;DHT22;9974;52.146;14.668;2023-07-13T12:09:45;25.70;97.50
19652;DHT22;9974;52.146;14.668;2023-07-13T12:12:14;25.90;96.50
19652;DHT22;9974;52.146;14.668;2023-07-13T12:14:43;26.30;97.10
19652;DHT22;9974;52.146;14.668;2023-07-13T12:17:16;26.50;95.70
19652;DHT22;9974;52.146;14.668;2023-07-13T12:19:44;26.70;94.90
19652;DHT22;9974;52.146;14.668;2023-07-13T12:22:13;26.80;95.70
19652;DHT22;9974;52.146;14.668;2023-07-13T12:24:40;26.90;95.80
19652;DHT22;9974;52.146;14.668;2023-07-13T12:27:14;26.80;94.80
19652;DHT22;9974;52.146;14.668;2023-07-13T12:29:56;26.90;92.80
19652;DHT22;9974;52.146;14.668;2023-07-13T12:32:25;26.80;91.90
19652;DHT22;9974;52.146;14.668;2023-07-13T12:34:53;27.80;94.70
19652;DHT22;9974;52.146;14.668;2023-07-13T12:37:20;29.30;90.60
19652;DHT22;9974;52.146;14.668;2023-07-13T12:39:47;29.40;84.00
19652;DHT22;9974;52.146;14.668;2023-07-13T12:42:26;27.90;87.90
19652;DHT22;9974;52.146;14.668;2023-07-13T12:44:59;29.10;90.50
19652;DHT22;9974;52.146;14.668;2023-07-13T12:47:27;29.10;92.10
19652;DHT22;9974;52.146;14.668;2023-07-13T12:49:58;29.50;90.40
19652;DHT22;9974;52.146;14.668;2023-07-13T12:52:32;29.80;89.80
19652;DHT22;9974;52.146;14.668;2023-07-13T12:55:05;30.00;88.10
19652;DHT22;9974;52.146;14.668;2023-07-13T12:57:46;30.40;83.10
19652;DHT22;9974;52.146;14.668;2023-07-13T13:00:31;29.50;84.50
19652;DHT22;9974;52.146;14.668;2023-07-13T13:03:03;28.40;85.40
19652;DHT22;9974;52.146;14.668;2023-07-13T13:05:32;28.10;88.30
19652;DHT22;9974;52.146;14.668;2023-07-13T13:07:59;28.20;90.10
19652;DHT22;9974;52.146;14.668;2023-07-13T13:10:25;28.00;90.40
19652;DHT22;9974;52.146;14.668;2023-07-13T13:12:52;28.90;91.40
19652;DHT22;9974;52.146;14.668;2023-07-13T13:15:18;29.30;90.80
19652;DHT22;9974;52.146;14.668;2023-07-13T13:17:43;29.30;88.50
19652;DHT22;9974;52.146;14.668;2023-07-13T13:20:20;29.40;80.70
19652;DHT22;9974;52.146;14.668;2023-07-13T13:22:47;29.30;89.30
19652;DHT22;9974;52.146;14.668;2023-07-13T13:25:14;29.20;87.10
19652;DHT22;9974;52.146;14.668;2023-07-13T13:27:44;28.90;90.10
19652;DHT22;9974;52.146;14.668;2023-07-13T13:30:11;28.40;89.70
19652;DHT22;9974;52.146;14.668;2023-07-13T13:32:41;28.10;90.60
19652;DHT22;9974;52.146;14.668;2023-07-13T13:35:19;28.30;90.10
19652;DHT22;9974;52.146;14.668;2023-07-13T13:37:47;28.90;90.60
19652;DHT22;9974;52.146;14.668;2023-07-13T13:40:18;28.90;89.10
19652;DHT22;9974;52.146;14.668;2023-07-13T13:42:46;28.80;88.30
19652;DHT22;9974;52.146;14.668;2023-07-13T13:45:13;28.90;88.70
19652;DHT22;9974;52.146;14.668;2023-07-13T13:47:39;28.70;89.00
19652;DHT22;9974;52.146;14.668;2023-07-13T13:50:21;28.90;79.80
19652;DHT22;9974;52.146;14.668;2023-07-13T13:52:47;29.00;86.60
19652;DHT22;9974;52.146;14.668;2023-07-13T13:55:16;28.60;86.30
19652;DHT22;9974;52.146;14.668;2023-07-13T13:57:48;28.40;89.20
19652;DHT22;9974;52.146;14.668;2023-07-13T14:00:15;28.00;90.20
19652;DHT22;9974;52.146;14.668;2023-07-13T14:02:44;27.90;90.50
19652;DHT22;9974;52.146;14.668;2023-07-13T14:05:14;27.50;90.70
19652;DHT22;9974;52.146;14.668;2023-07-13T14:07:41;28.20;90.30
19652;DHT22;9974;52.146;14.668;2023-07-13T14:10:16;28.00;87.80
19652;DHT22;9974;52.146;14.668;2023-07-13T14:12:44;28.10;87.20
19652;DHT22;9974;52.146;14.668;2023-07-13T14:15:21;28.00;87.30
19652;DHT22;9974;52.146;14.668;2023-07-13T14:17:49;28.20;87.30
19652;DHT22;9974;52.146;14.668;2023-07-13T14:20:16;27.90;85.10
19652;DHT22;9974;52.146;14.668;2023-07-13T14:22:43;27.90;87.10
19652;DHT22;9974;52.146;14.668;2023-07-13T14:25:14;27.70;86.70
19652;DHT22;9974;52.146;14.668;2023-07-13T14:27:41;27.90;88.30
19652;DHT22;9974;52.146;14.668;2023-07-13T14:30:19;28.30;87.60
19652;DHT22;9974;52.146;14.668;2023-07-13T14:32:46;27.90;87.60
19652;DHT22;9974;52.146;14.668;2023-07-13T14:35:17;28.20;88.80
19652;DHT22;9974;52.146;14.668;2023-07-13T14:40:15;28.30;84.30
19652;DHT22;9974;52.146;14.668;2023-07-13T14:42:42;28.00;83.70
19652;DHT22;9974;52.146;14.668;2023-07-13T14:45:19;27.80;83.60
19652;DHT22;9974;52.146;14.668;2023-07-13T14:47:46;27.00;84.70
19652;DHT22;9974;52.146;14.668;2023-07-13T14:50:22;27.20;88.30
19652;DHT22;9974;52.146;14.668;2023-07-13T14:52:52;27.10;86.60
19652;DHT22;9974;52.146;14.668;2023-07-13T14:55:19;27.00;77.40
19652;DHT22;9974;52.146;14.668;2023-07-13T14:57:45;27.50;87.10
19652;DHT22;9974;52.146;14.668;2023-07-13T15:00:15;27.50;83.90
19652;DHT22;9974;52.146;14.668;2023-07-13T15:02:55;27.30;83.50
19652;DHT22;9974;52.146;14.668;2023-07-13T15:05:25;27.00;85.40
19652;DHT22;9974;52.146;14.668;2023-07-13T15:10:24;27.10;83.10
19652;DHT22;9974;52.146;14.668;2023-07-13T15:13:00;27.00;81.70
19652;DHT22;9974;52.146;14.668;2023-07-13T15:15:39;27.10;82.20
19652;DHT22;9974;52.146;14.668;2023-07-13T15:18:09;27.00;83.10
19652;DHT22;9974;52.146;14.668;2023-07-13T15:20:37;26.80;81.80
19652;DHT22;9974;52.146;14.668;2023-07-13T15:23:04;27.50;83.50
19652;DHT22;9974;52.146;14.668;2023-07-13T15:25:31;26.90;81.40
19652;DHT22;9974;52.146;14.668;2023-07-13T15:27:58;26.70;82.60
19652;DHT22;9974;52.146;14.668;2023-07-13T15:30:34;26.80;83.50
19652;DHT22;9974;52.146;14.668;2023-07-13T15:33:11;26.90;81.20
19652;DHT22;9974;52.146;14.668;2023-07-13T15:35:44;26.80;83.00
19652;DHT22;9974;52.146;14.668;2023-07-13T15:38:14;26.80;73.30
19652;DHT22;9974;52.146;14.668;2023-07-13T15:40:41;27.20;82.10
19652;DHT22;9974;52.146;14.668;2023-07-13T15:43:12;27.30;82.60
19652;DHT22;9974;52.146;14.668;2023-07-13T15:45:38;27.50;83.30
19652;DHT22;9974;52.146;14.668;2023-07-13T15:48:14;27.50;81.90
19652;DHT22;9974;52.146;14.668;2023-07-13T15:50:53;27.40;81.60
19652;DHT22;9974;52.146;14.668;2023-07-13T15:53:25;27.30;81.80
19652;DHT22;9974;52.146;14.668;2023-07-13T15:55:53;27.30;82.40
19652;DHT22;9974;52.146;14.668;2023-07-13T15:58:19;27.40;82.00
19652;DHT22;9974;52.146;14.668;2023-07-13T16:00:45;26.60;82.10
19652;DHT22;9974;52.146;14.668;2023-07-13T16:03:11;26.50;81.80
19652;DHT22;9974;52.146;14.668;2023-07-13T16:05:37;26.90;82.40
19652;DHT22;9974;52.146;14.668;2023-07-13T16:08:05;27.00;82.40
19652;DHT22;9974;52.146;14.668;2023-07-13T16:10:36;26.60;82.70
19652;DHT22;9974;52.146;14.668;2023-07-13T16:13:04;26.40;84.30
19652;DHT22;9974;52.146;14.668;2023-07-13T16:15:32;26.70;85.00
19652;DHT22;9974;52.146;14.668;2023-07-13T16:17:58;26.40;83.80
19652;DHT22;9974;52.146;14.668;2023-07-13T16:20:24;26.40;83.30
19652;DHT22;9974;52.146;14.668;2023-07-13T16:22:52;26.40;82.10
19652;DHT22;9974;52.146;14.668;2023-07-13T16:25:24;26.40;84.40
19652;DHT22;9974;52.146;14.668;2023-07-13T16:27:52;26.60;83.80
19652;DHT22;9974;52.146;14.668;2023-07-13T16:30:24;26.60;83.10
19652;DHT22;9974;52.146;14.668;2023-07-13T16:32:52;26.60;82.90
19652;DHT22;9974;52.146;14.668;2023-07-13T16:35:24;26.50;82.70
19652;DHT22;9974;52.146;14.668;2023-07-13T16:37:51;26.20;81.70
19652;DHT22;9974;52.146;14.668;2023-07-13T16:40:28;26.50;82.50
19652;DHT22;9974;52.146;14.668;2023-07-13T16:42:57;26.50;83.50
19652;DHT22;9974;52.146;14.668;2023-07-13T16:45:31;26.40;83.70
19652;DHT22;9974;52.146;14.668;2023-07-13T16:48:02;26.10;83.30
19652;DHT22;9974;52.146;14.668;2023-07-13T16:50:32;26.10;74.20
19652;DHT22;9974;52.146;14.668;2023-07-13T16:52:59;26.00;84.60
19652;DHT22;9974;52.146;14.668;2023-07-13T16:55:26;26.00;83.80
19652;DHT22;9974;52.146;14.668;2023-07-13T16:57:54;26.00;82.40
19652;DHT22;9974;52.146;14.668;2023-07-13T17:00:27;26.20;83.90
19652;DHT22;9974;52.146;14.668;2023-07-13T17:02:56;26.20;83.50
19652;DHT22;9974;52.146;14.668;2023-07-13T17:05:32;26.20;72.90
19652;DHT22;9974;52.146;14.668;2023-07-13T17:08:02;26.00;82.10
19652;DHT22;9974;52.146;14.668;2023-07-13T17:10:39;26.20;83.30